Terminal Aerodrome Forecast
Issued by NWS

Home | Current Version | Previous Version | Text Only | Print | Product List | Glossary On
Versions: 1 2 3 4 5 6 7 8 9 10 11 12 13 14 15 16 17 18 19
000
FTUS45 KABQ 011740
TAFGUP
TAF
KGUP 011740Z 0118/0218 15015G25KT P6SM VCTS FEW025 SCT050CB BKN070
      TEMPO 0122/0201 5SM -RA OVC025
     FM020300 12010KT P6SM BKN050
      TEMPO 0208/0212 4SM BR OVC015
     FM021200 VRB04KT P6SM BKN060=

USA.gov is the U.S. government's official web portal to all federal, state and local government web resources and services.